createdAt,value
2023-02-07T00:00:42.758Z,7.20
2023-02-07T00:03:45.376Z,7.03
2023-02-07T00:06:46.883Z,8.20
2023-02-07T00:09:48.371Z,9.68
2023-02-07T00:12:50.195Z,6.82
2023-02-07T00:15:51.699Z,7.95
2023-02-07T00:18:55.556Z,7.38
2023-02-07T00:21:57.048Z,7.70
2023-02-07T00:24:58.537Z,8.20
2023-02-07T00:28:00.203Z,9.27
2023-02-07T00:31:20.846Z,7.38
2023-02-07T00:34:22.400Z,6.22
2023-02-07T00:37:23.881Z,7.13
2023-02-07T00:40:25.412Z,5.80
2023-02-07T00:43:29.873Z,7.40
2023-02-07T00:46:32.212Z,7.90
2023-02-07T00:49:33.776Z,7.60
2023-02-07T00:52:35.279Z,8.23
2023-02-07T00:55:37.021Z,7.72
2023-02-07T00:58:38.620Z,8.82
2023-02-07T01:01:41.281Z,7.63
2023-02-07T01:04:42.894Z,8.73
2023-02-07T01:07:44.439Z,7.18
2023-02-07T01:10:46.305Z,8.48
2023-02-07T01:13:47.830Z,9.77
2023-02-07T01:16:50.046Z,8.50
2023-02-07T01:19:56.668Z,10.63
2023-02-07T01:22:58.189Z,9.52
2023-02-07T01:25:59.654Z,12.07
2023-02-07T01:29:02.467Z,8.52
2023-02-07T01:32:04.138Z,9.43
2023-02-07T01:35:05.944Z,10.48
2023-02-07T01:38:07.997Z,9.57
2023-02-07T01:41:10.602Z,10.45
2023-02-07T01:44:24.442Z,10.00
2023-02-07T01:47:26.943Z,11.73
2023-02-07T01:50:29.294Z,10.40
2023-02-07T01:53:31.417Z,9.43
2023-02-07T01:56:36.136Z,9.75
2023-02-07T01:59:40.896Z,13.88
2023-02-07T02:02:43.002Z,11.00
2023-02-07T02:05:46.359Z,11.18
2023-02-07T02:08:49.841Z,12.05
2023-02-07T02:12:22.586Z,9.70
2023-02-07T02:15:33.678Z,12.82
2023-02-07T02:19:29.531Z,9.75
2023-02-07T02:23:05.684Z,10.15
2023-02-07T02:26:37.785Z,9.82
2023-02-07T02:30:06.993Z,11.57
2023-02-07T02:33:09.096Z,10.60
2023-02-07T02:36:25.725Z,10.25
2023-02-07T02:39:40.867Z,12.05
2023-02-07T02:42:54.054Z,11.43
2023-02-07T02:46:01.689Z,10.55
2023-02-07T02:49:06.476Z,12.43
2023-02-07T02:52:08.052Z,10.75
2023-02-07T02:55:09.643Z,11.70
2023-02-07T02:58:20.134Z,10.75
2023-02-07T03:01:35.987Z,9.43
2023-02-07T03:04:54.885Z,10.57
2023-02-07T03:08:25.506Z,11.02
2023-02-07T03:11:32.289Z,9.82
2023-02-07T03:14:45.523Z,11.68
2023-02-07T03:18:08.016Z,12.20
2023-02-07T03:21:21.880Z,10.65
2023-02-07T03:24:29.013Z,11.85
2023-02-07T03:27:32.226Z,11.85
2023-02-07T03:30:36.047Z,11.23
2023-02-07T03:33:38.348Z,12.93
2023-02-07T03:36:50.514Z,13.95
2023-02-07T03:39:52.503Z,14.13
2023-02-07T03:43:04.660Z,13.75
2023-02-07T03:46:09.492Z,14.75
2023-02-07T03:49:11.579Z,11.80
2023-02-07T03:52:13.042Z,11.68
2023-02-07T03:55:14.512Z,11.80
2023-02-07T03:58:15.961Z,13.18
2023-02-07T04:01:17.663Z,15.50
2023-02-07T04:04:19.317Z,12.82
2023-02-07T04:07:20.858Z,13.02
2023-02-07T04:10:22.558Z,13.93
2023-02-07T04:13:24.047Z,13.02
2023-02-07T04:16:25.965Z,13.02
2023-02-07T04:19:27.462Z,17.55
2023-02-07T04:22:29.599Z,11.70
2023-02-07T04:25:31.199Z,13.88
2023-02-07T04:28:32.969Z,14.93
2023-02-07T04:31:34.649Z,13.80
2023-02-07T04:34:36.080Z,16.48
2023-02-07T04:37:37.617Z,16.25
2023-02-07T04:40:39.327Z,16.60
2023-02-07T04:43:40.811Z,14.88
2023-02-07T04:46:42.294Z,17.33
2023-02-07T04:49:43.882Z,14.90
2023-02-07T04:52:45.292Z,14.57
2023-02-07T04:55:51.159Z,16.67
2023-02-07T04:58:52.875Z,18.25
2023-02-07T05:01:54.385Z,14.20
2023-02-07T05:04:55.881Z,17.77
2023-02-07T05:07:57.455Z,18.77
2023-02-07T05:10:59.065Z,15.63
2023-02-07T05:14:00.574Z,16.92
2023-02-07T05:17:02.063Z,15.63
2023-02-07T05:20:03.638Z,17.55
2023-02-07T05:23:05.160Z,16.10
2023-02-07T05:26:06.729Z,16.33
2023-02-07T05:29:08.511Z,15.18
2023-02-07T05:32:32.809Z,16.05
2023-02-07T05:35:40.338Z,18.88
2023-02-07T05:38:42.008Z,15.50
2023-02-07T05:41:43.460Z,16.35
2023-02-07T05:44:45.366Z,27.30
2023-02-07T05:47:47.249Z,14.75
2023-02-07T05:50:48.793Z,19.20
2023-02-07T05:53:50.290Z,14.70
2023-02-07T05:56:51.835Z,17.17
2023-02-07T05:59:53.265Z,15.13
2023-02-07T06:02:54.811Z,16.58
2023-02-07T06:05:56.272Z,17.75
2023-02-07T06:08:57.791Z,18.13
2023-02-07T06:11:59.291Z,16.98
2023-02-07T06:15:00.905Z,18.05
2023-02-07T06:18:02.474Z,15.90
2023-02-07T06:21:04.500Z,15.02
2023-02-07T06:24:06.876Z,14.35
2023-02-07T06:27:08.397Z,16.70
2023-02-07T06:30:12.448Z,17.33
2023-02-07T06:36:15.322Z,19.17
2023-02-07T06:39:16.775Z,18.10
2023-02-07T06:42:18.295Z,17.90
2023-02-07T06:45:20.026Z,18.65
2023-02-07T06:48:21.833Z,18.75
2023-02-07T06:51:23.534Z,17.95
2023-02-07T06:54:25.116Z,21.45
2023-02-07T06:57:26.602Z,19.95
2023-02-07T07:00:29.791Z,17.00
2023-02-07T07:03:31.428Z,16.92
2023-02-07T07:06:33.534Z,17.35
2023-02-07T07:09:35.174Z,23.17
2023-02-07T07:12:36.801Z,20.95
2023-02-07T07:15:38.462Z,18.63
2023-02-07T07:18:40.270Z,18.88
2023-02-07T07:21:41.796Z,15.98
2023-02-07T07:24:43.691Z,18.20
2023-02-07T07:27:45.409Z,19.45
2023-02-07T07:30:47.082Z,18.77
2023-02-07T07:33:48.612Z,19.20
2023-02-07T07:36:50.168Z,16.98
2023-02-07T07:39:51.686Z,19.92
2023-02-07T07:42:53.234Z,19.77
2023-02-07T07:46:04.261Z,18.80
2023-02-07T07:49:05.782Z,19.15
2023-02-07T07:52:07.613Z,22.60
2023-02-07T07:55:10.153Z,20.98
2023-02-07T07:58:11.680Z,18.75
2023-02-07T08:01:13.212Z,17.73
2023-02-07T08:04:14.689Z,21.35
2023-02-07T08:07:16.197Z,19.13
2023-02-07T08:10:17.661Z,22.15
2023-02-07T08:13:20.106Z,19.85
2023-02-07T08:16:21.636Z,16.85
2023-02-07T08:19:24.277Z,18.15
2023-02-07T08:22:25.828Z,16.58
2023-02-07T08:25:27.428Z,16.30
2023-02-07T08:28:29.519Z,14.68
2023-02-07T08:31:31.228Z,16.00
2023-02-07T08:34:37.400Z,17.67
2023-02-07T08:37:39.271Z,15.70
2023-02-07T08:40:41.122Z,16.30
2023-02-07T08:43:42.829Z,17.15
2023-02-07T08:46:44.270Z,18.30
2023-02-07T08:49:45.828Z,13.95
2023-02-07T08:52:47.290Z,14.68
2023-02-07T08:55:48.872Z,13.82
2023-02-07T08:58:50.302Z,15.60
2023-02-07T09:01:51.976Z,14.05
2023-02-07T09:04:53.670Z,15.73
2023-02-07T09:07:55.102Z,25.63
2023-02-07T09:10:56.654Z,14.25
2023-02-07T09:13:58.127Z,13.73
2023-02-07T09:16:59.697Z,17.05
2023-02-07T09:20:01.369Z,16.33
2023-02-07T09:23:17.839Z,14.02
2023-02-07T09:26:22.087Z,13.70
2023-02-07T09:32:25.653Z,14.55
2023-02-07T09:35:27.236Z,13.32
2023-02-07T09:38:29.205Z,14.05
2023-02-07T09:41:41.348Z,16.92
2023-02-07T09:45:03.546Z,20.15
2023-02-07T09:48:15.577Z,14.82
2023-02-07T09:51:20.898Z,15.80
2023-02-07T09:54:33.069Z,15.35
2023-02-07T09:57:44.416Z,12.25
2023-02-07T10:00:53.839Z,13.43
2023-02-07T10:04:07.537Z,13.15
2023-02-07T10:07:13.191Z,13.32
2023-02-07T10:10:24.254Z,13.32
2023-02-07T10:13:31.557Z,13.52
2023-02-07T10:16:44.536Z,15.02
2023-02-07T10:19:58.196Z,13.48
2023-02-07T10:23:05.961Z,15.35
2023-02-07T10:26:10.437Z,16.80
2023-02-07T10:30:05.001Z,14.15
2023-02-07T10:33:14.426Z,14.80
2023-02-07T10:36:17.311Z,14.07
2023-02-07T10:39:21.784Z,13.07
2023-02-07T10:42:24.398Z,13.52
2023-02-07T10:45:25.866Z,15.02
2023-02-07T10:48:28.363Z,13.90
2023-02-07T10:51:29.789Z,15.25
2023-02-07T10:54:51.383Z,16.90
2023-02-07T10:58:01.455Z,15.05
2023-02-07T11:01:06.117Z,13.52
2023-02-07T11:04:23.743Z,15.85
2023-02-07T11:07:26.408Z,13.93
2023-02-07T11:10:48.818Z,14.77
2023-02-07T11:13:52.108Z,15.27
2023-02-07T11:16:59.167Z,14.83
2023-02-07T11:20:16.686Z,13.98
2023-02-07T11:23:18.294Z,13.70
2023-02-07T11:26:21.765Z,14.70
2023-02-07T11:29:25.822Z,19.70
2023-02-07T11:32:28.740Z,14.57
2023-02-07T11:35:30.301Z,15.90
2023-02-07T11:38:36.136Z,14.70
2023-02-07T11:41:38.721Z,15.50
2023-02-07T11:44:45.837Z,13.75
2023-02-07T11:47:49.569Z,14.95
2023-02-07T11:50:56.617Z,15.48
2023-02-07T11:54:02.224Z,14.27
2023-02-07T11:57:13.109Z,13.60
2023-02-07T12:00:23.536Z,15.23
2023-02-07T12:03:28.254Z,14.15
2023-02-07T12:06:43.962Z,13.10
2023-02-07T12:10:05.826Z,15.68
2023-02-07T12:13:12.115Z,13.82
2023-02-07T12:16:21.380Z,14.60
2023-02-07T12:19:29.909Z,12.40
2023-02-07T12:23:21.512Z,13.48
2023-02-07T12:26:47.613Z,11.80
2023-02-07T12:30:04.470Z,12.73
2023-02-07T12:33:31.645Z,12.30
2023-02-07T12:36:53.088Z,11.82
2023-02-07T12:40:12.521Z,13.02
2023-02-07T12:43:38.592Z,12.95
2023-02-07T12:46:58.033Z,12.38
2023-02-07T12:50:08.367Z,19.38
2023-02-07T12:53:36.840Z,12.68
2023-02-07T12:57:03.194Z,15.75
2023-02-07T13:00:28.715Z,14.40
2023-02-07T13:04:07.320Z,13.70
2023-02-07T13:07:48.453Z,14.63
2023-02-07T13:10:58.979Z,13.50
2023-02-07T13:14:30.125Z,13.73
2023-02-07T13:17:43.437Z,17.50
2023-02-07T13:20:47.904Z,14.48
2023-02-07T13:23:49.574Z,15.07
2023-02-07T13:27:17.404Z,14.35
2023-02-07T13:30:20.634Z,13.13
2023-02-07T13:33:34.852Z,16.88
2023-02-07T13:36:42.712Z,17.25
2023-02-07T13:39:57.133Z,15.85
2023-02-07T13:46:42.681Z,16.85
2023-02-07T13:50:01.890Z,16.33
2023-02-07T13:53:15.414Z,17.85
2023-02-07T13:56:35.828Z,18.40
2023-02-07T13:59:38.931Z,19.70
2023-02-07T14:02:44.910Z,19.67
2023-02-07T14:05:46.622Z,18.55
2023-02-07T14:09:01.093Z,20.52
2023-02-07T14:15:41.864Z,19.58
2023-02-07T14:18:49.747Z,17.50
2023-02-07T14:22:13.758Z,21.52
2023-02-07T14:25:42.431Z,23.35
2023-02-07T14:28:46.124Z,18.25
2023-02-07T14:31:49.523Z,20.08
2023-02-07T14:35:06.505Z,20.92
2023-02-07T14:38:07.901Z,23.35
2023-02-07T14:41:12.719Z,20.75
2023-02-07T14:44:37.805Z,21.27
2023-02-07T14:47:39.329Z,20.55
2023-02-07T14:50:41.010Z,18.80
2023-02-07T14:53:45.188Z,19.63
2023-02-07T14:56:50.107Z,21.20
2023-02-07T15:00:02.171Z,20.63
2023-02-07T15:03:12.540Z,19.23
2023-02-07T15:06:30.681Z,21.02
2023-02-07T15:09:34.811Z,21.00
2023-02-07T15:12:36.396Z,20.38
2023-02-07T15:15:47.616Z,21.17
2023-02-07T15:18:49.256Z,19.35
2023-02-07T15:21:51.278Z,19.55
2023-02-07T15:24:57.517Z,19.75
2023-02-07T15:28:27.050Z,22.77
2023-02-07T15:31:30.450Z,20.27
2023-02-07T15:34:33.499Z,22.50
2023-02-07T15:37:34.991Z,20.33
2023-02-07T15:40:36.528Z,20.05
2023-02-07T15:43:38.086Z,22.33
2023-02-07T15:46:54.627Z,19.33
2023-02-07T15:50:04.286Z,18.95
2023-02-07T15:53:08.595Z,19.60
2023-02-07T15:56:15.178Z,26.23
2023-02-07T15:59:21.112Z,22.88
2023-02-07T16:02:32.979Z,23.50
2023-02-07T16:05:37.906Z,20.77
2023-02-07T16:08:42.371Z,21.08
2023-02-07T16:11:43.916Z,20.83
2023-02-07T16:14:45.387Z,22.25
2023-02-07T16:17:46.969Z,21.20
2023-02-07T16:20:48.617Z,26.33
2023-02-07T16:23:53.738Z,22.88
2023-02-07T16:26:56.078Z,24.30
2023-02-07T16:29:59.408Z,25.55
2023-02-07T16:33:05.638Z,25.80
2023-02-07T16:36:17.936Z,26.20
2023-02-07T16:39:20.327Z,26.20
2023-02-07T16:42:21.830Z,21.95
2023-02-07T16:45:26.426Z,23.17
2023-02-07T16:48:28.076Z,34.28
2023-02-07T16:51:29.564Z,32.75
2023-02-07T16:54:31.320Z,33.22
2023-02-07T16:57:32.803Z,22.75
2023-02-07T17:00:34.624Z,22.48
2023-02-07T17:03:36.070Z,25.30
2023-02-07T17:06:38.302Z,23.33
2023-02-07T17:09:39.852Z,22.23
2023-02-07T17:12:43.071Z,28.00
2023-02-07T17:15:44.553Z,31.70
2023-02-07T17:18:46.305Z,26.67
2023-02-07T17:21:49.423Z,34.58
2023-02-07T17:24:53.633Z,31.20
2023-02-07T17:27:55.778Z,33.78
2023-02-07T17:30:57.287Z,29.48
2023-02-07T17:33:59.402Z,29.00
2023-02-07T17:37:00.941Z,32.22
2023-02-07T17:40:02.559Z,30.23
2023-02-07T17:43:05.110Z,32.90
2023-02-07T17:46:21.832Z,36.75
2023-02-07T17:49:23.261Z,36.85
2023-02-07T17:52:24.777Z,33.75
2023-02-07T17:55:26.298Z,29.70
2023-02-07T17:58:29.498Z,31.50
2023-02-07T18:01:32.316Z,36.23
2023-02-07T18:04:33.794Z,34.55
2023-02-07T18:07:35.443Z,31.52
2023-02-07T18:10:37.232Z,34.15
2023-02-07T18:13:39.435Z,31.27
2023-02-07T18:16:41.533Z,30.63
2023-02-07T18:19:43.046Z,28.10
2023-02-07T18:22:44.573Z,30.73
2023-02-07T18:25:50.697Z,41.72
2023-02-07T18:28:52.390Z,29.65
2023-02-07T18:31:53.918Z,34.50
2023-02-07T18:34:55.457Z,31.58
2023-02-07T18:37:56.927Z,43.88
2023-02-07T18:40:58.421Z,51.03
2023-02-07T18:43:59.884Z,35.83
2023-02-07T18:47:01.484Z,28.05
2023-02-07T18:50:03.108Z,34.20
2023-02-07T18:53:05.408Z,29.88
2023-02-07T18:56:09.947Z,30.13
2023-02-07T18:59:11.442Z,30.38
2023-02-07T19:02:13.221Z,21.42
2023-02-07T19:05:14.913Z,19.33
2023-02-07T19:08:16.338Z,21.90
2023-02-07T19:11:19.340Z,24.13
2023-02-07T19:14:24.050Z,22.17
2023-02-07T19:17:25.622Z,19.23
2023-02-07T19:20:27.111Z,18.42
2023-02-07T19:23:28.657Z,19.00
2023-02-07T19:26:30.442Z,19.75
2023-02-07T19:29:33.461Z,21.85
2023-02-07T19:32:35.224Z,21.77
2023-02-07T19:35:38.122Z,21.63
2023-02-07T19:38:39.897Z,15.65
2023-02-07T19:41:41.381Z,18.65
2023-02-07T19:44:43.014Z,19.20
2023-02-07T19:47:44.462Z,17.15
2023-02-07T19:50:45.999Z,24.67
2023-02-07T19:53:49.941Z,22.33
2023-02-07T19:56:51.416Z,19.15
2023-02-07T19:59:52.930Z,19.20
2023-02-07T20:02:54.356Z,18.58
2023-02-07T20:06:00.089Z,17.60
2023-02-07T20:09:05.611Z,17.92
2023-02-07T20:12:07.460Z,20.33
2023-02-07T20:15:09.607Z,20.73
2023-02-07T20:18:13.225Z,18.23
2023-02-07T20:21:17.254Z,19.02
2023-02-07T20:27:21.044Z,19.58
2023-02-07T20:30:22.499Z,20.08
2023-02-07T20:33:24.262Z,20.92
2023-02-07T20:36:26.429Z,18.25
2023-02-07T20:39:30.593Z,20.50
2023-02-07T20:45:33.619Z,17.08
2023-02-07T20:48:35.274Z,22.48
2023-02-07T20:51:37.936Z,18.73
2023-02-07T20:54:39.384Z,18.50
2023-02-07T20:57:40.934Z,21.08
2023-02-07T21:00:42.510Z,21.33
2023-02-07T21:03:46.666Z,23.42
2023-02-07T21:06:48.602Z,22.50
2023-02-07T21:09:51.101Z,23.70
2023-02-07T21:12:52.601Z,24.30
2023-02-07T21:16:03.074Z,21.25
2023-02-07T21:19:05.136Z,24.83
2023-02-07T21:22:06.821Z,25.88
2023-02-07T21:25:08.373Z,23.33
2023-02-07T21:28:10.604Z,21.88
2023-02-07T21:31:19.928Z,23.80
2023-02-07T21:34:22.212Z,24.38
2023-02-07T21:37:23.849Z,24.88
2023-02-07T21:40:26.327Z,26.05
2023-02-07T21:43:27.892Z,25.85
2023-02-07T21:46:34.956Z,28.75
2023-02-07T21:49:37.772Z,24.67
2023-02-07T21:52:39.798Z,26.52
2023-02-07T21:55:41.312Z,23.35
2023-02-07T21:58:43.398Z,30.50
2023-02-07T22:01:46.377Z,27.55
2023-02-07T22:04:47.894Z,27.95
2023-02-07T22:07:49.358Z,29.20
2023-02-07T22:10:50.889Z,26.45
2023-02-07T22:13:53.671Z,28.88
2023-02-07T22:16:57.372Z,30.73
2023-02-07T22:19:58.838Z,30.13
2023-02-07T22:23:00.332Z,28.27
2023-02-07T22:26:02.461Z,26.48
2023-02-07T22:29:06.234Z,27.10
2023-02-07T22:32:07.740Z,28.90
2023-02-07T22:35:09.194Z,26.38
2023-02-07T22:38:13.159Z,27.02
2023-02-07T22:41:15.729Z,25.15
2023-02-07T22:44:17.220Z,26.10
2023-02-07T22:47:18.718Z,25.15
2023-02-07T22:50:20.573Z,21.25
2023-02-07T22:53:22.140Z,21.45
2023-02-07T22:56:24.140Z,23.73
2023-02-07T22:59:25.567Z,27.23
2023-02-07T23:02:28.240Z,21.85
2023-02-07T23:05:29.781Z,21.35
2023-02-07T23:08:31.465Z,18.92
2023-02-07T23:11:33.567Z,23.90
2023-02-07T23:14:35.072Z,19.83
2023-02-07T23:17:36.543Z,21.33
2023-02-07T23:20:38.139Z,17.65
2023-02-07T23:23:40.287Z,17.92
2023-02-07T23:26:41.870Z,21.17
2023-02-07T23:29:43.358Z,20.42
2023-02-07T23:32:44.818Z,19.67
2023-02-07T23:35:46.311Z,20.55
2023-02-07T23:38:48.782Z,20.90
2023-02-07T23:41:50.308Z,18.88
2023-02-07T23:44:51.786Z,24.10
2023-02-07T23:47:53.802Z,21.25
2023-02-07T23:50:57.578Z,20.52
2023-02-07T23:53:59.052Z,19.23
2023-02-07T23:57:00.696Z,18.08
